createdAt,value
2019-05-06T00:00:59.469Z,18.02
2019-05-06T00:03:30.192Z,18.02
2019-05-06T00:06:01.132Z,18.03
2019-05-06T00:08:34.205Z,18.04
2019-05-06T00:11:05.008Z,18.05
2019-05-06T00:13:35.892Z,18.01
2019-05-06T00:16:07.287Z,18.01
2019-05-06T00:18:38.346Z,18.00
2019-05-06T00:21:09.384Z,18.01
2019-05-06T00:23:41.983Z,17.95
2019-05-06T00:26:24.327Z,17.94
2019-05-06T00:28:57.181Z,17.92
2019-05-06T00:31:28.250Z,17.93
2019-05-06T00:33:59.357Z,17.91
2019-05-06T00:36:30.466Z,17.91
2019-05-06T00:39:04.588Z,17.91
2019-05-06T00:41:37.377Z,17.91
2019-05-06T00:44:08.579Z,17.89
2019-05-06T00:46:39.694Z,17.89
2019-05-06T00:49:10.761Z,17.89
2019-05-06T00:51:43.881Z,17.90
2019-05-06T00:54:16.847Z,17.89
2019-05-06T00:56:47.977Z,17.87
2019-05-06T00:59:19.015Z,17.87
2019-05-06T01:01:50.135Z,17.87
2019-05-06T01:04:21.346Z,17.85
2019-05-06T01:06:54.417Z,17.85
2019-05-06T01:09:25.712Z,17.85
2019-05-06T01:11:58.391Z,17.82
2019-05-06T01:14:39.860Z,17.81
2019-05-06T01:17:11.033Z,17.83
2019-05-06T01:19:41.977Z,17.79
2019-05-06T01:22:14.053Z,17.79
2019-05-06T01:24:45.195Z,17.77
2019-05-06T01:27:16.282Z,17.76
2019-05-06T01:29:47.284Z,17.72
2019-05-06T01:32:18.428Z,17.74
2019-05-06T01:34:49.592Z,17.72
2019-05-06T01:37:20.727Z,17.72
2019-05-06T01:40:09.274Z,17.70
2019-05-06T01:42:59.993Z,17.71
2019-05-06T01:45:31.119Z,17.66
2019-05-06T01:48:04.030Z,17.63
2019-05-06T01:50:34.926Z,17.60
2019-05-06T01:53:06.064Z,17.56
2019-05-06T01:55:37.102Z,17.54
2019-05-06T01:58:08.228Z,17.53
2019-05-06T02:00:39.668Z,17.51
2019-05-06T02:03:10.846Z,17.50
2019-05-06T02:05:41.833Z,17.48
2019-05-06T02:08:13.496Z,17.44
2019-05-06T02:10:44.864Z,17.44
2019-05-06T02:13:16.851Z,17.45
2019-05-06T02:15:47.871Z,17.43
2019-05-06T02:18:20.150Z,17.42
2019-05-06T02:20:53.818Z,17.40
2019-05-06T02:23:26.666Z,17.39
2019-05-06T02:25:57.696Z,17.39
2019-05-06T02:28:28.735Z,17.36
2019-05-06T02:31:17.882Z,17.32
2019-05-06T02:33:50.608Z,17.34
2019-05-06T02:36:39.205Z,17.37
2019-05-06T02:39:10.255Z,17.37
2019-05-06T02:41:42.999Z,17.40
2019-05-06T02:44:14.187Z,17.41
2019-05-06T02:46:46.923Z,17.39
2019-05-06T02:49:23.719Z,17.40
2019-05-06T02:51:54.989Z,17.39
2019-05-06T02:54:27.414Z,17.38
2019-05-06T02:56:58.512Z,17.38
2019-05-06T02:59:29.584Z,17.40
2019-05-06T03:02:03.359Z,17.37
2019-05-06T03:04:33.530Z,17.36
2019-05-06T03:07:04.656Z,17.40
2019-05-06T03:09:35.683Z,17.43
2019-05-06T03:12:07.035Z,17.44
2019-05-06T03:14:37.951Z,17.45
2019-05-06T03:17:09.150Z,17.48
2019-05-06T03:19:45.760Z,17.52
2019-05-06T03:22:18.967Z,17.53
2019-05-06T03:24:54.473Z,17.55
2019-05-06T03:27:24.438Z,17.59
2019-05-06T03:29:55.380Z,17.62
2019-05-06T03:32:30.737Z,17.59
2019-05-06T03:35:21.774Z,17.60
2019-05-06T03:37:33.416Z,17.61
2019-05-06T03:40:05.683Z,17.54
2019-05-06T03:42:36.862Z,17.57
2019-05-06T03:45:09.408Z,17.58
2019-05-06T03:47:47.636Z,17.61
2019-05-06T03:50:18.559Z,17.58
2019-05-06T03:52:49.587Z,17.57
2019-05-06T03:55:23.310Z,17.56
2019-05-06T03:57:54.000Z,17.59
2019-05-06T04:00:25.126Z,17.63
2019-05-06T04:02:56.367Z,17.64
2019-05-06T04:05:27.565Z,17.66
2019-05-06T04:07:58.800Z,17.68
2019-05-06T04:10:29.826Z,17.68
2019-05-06T04:13:03.899Z,17.71
2019-05-06T04:15:36.150Z,17.70
2019-05-06T04:18:12.513Z,17.69
2019-05-06T04:20:48.137Z,17.71
2019-05-06T04:23:36.275Z,17.71
2019-05-06T04:26:13.430Z,17.62
2019-05-06T04:28:44.151Z,17.67
2019-05-06T04:31:15.283Z,17.67
2019-05-06T04:34:05.159Z,17.65
2019-05-06T04:36:19.246Z,17.66
2019-05-06T04:38:50.373Z,17.69
2019-05-06T04:41:23.182Z,17.70
2019-05-06T04:43:54.180Z,17.71
2019-05-06T04:46:25.335Z,17.70
2019-05-06T04:48:56.277Z,17.71
2019-05-06T04:51:27.901Z,17.70
2019-05-06T04:53:59.339Z,17.73
2019-05-06T04:56:33.168Z,17.77
2019-05-06T04:59:06.387Z,17.77
2019-05-06T05:01:35.980Z,17.77
2019-05-06T05:04:22.815Z,17.80
2019-05-06T05:06:43.201Z,17.82
2019-05-06T05:09:17.482Z,17.87
2019-05-06T05:11:52.993Z,17.91
2019-05-06T05:14:39.816Z,17.96
2019-05-06T05:17:12.814Z,17.99
2019-05-06T05:19:44.177Z,18.02
2019-05-06T05:22:16.320Z,18.05
2019-05-06T05:24:47.340Z,18.08
2019-05-06T05:27:18.502Z,18.10
2019-05-06T05:29:49.671Z,18.14
2019-05-06T05:32:22.456Z,18.20
2019-05-06T05:34:53.411Z,18.28
2019-05-06T05:37:24.524Z,18.31
2019-05-06T05:39:55.582Z,18.38
2019-05-06T05:42:32.755Z,18.45
2019-05-06T05:45:04.718Z,18.48
2019-05-06T05:47:36.633Z,18.50
2019-05-06T05:50:09.408Z,18.55
2019-05-06T05:52:42.496Z,18.63
2019-05-06T05:55:13.375Z,18.64
2019-05-06T05:57:44.614Z,18.70
2019-05-06T06:00:16.999Z,18.77
2019-05-06T06:02:48.127Z,18.77
2019-05-06T06:05:19.221Z,18.92
2019-05-06T06:07:50.444Z,18.91
2019-05-06T06:10:24.398Z,18.90
2019-05-06T06:12:55.721Z,19.00
2019-05-06T06:15:45.931Z,18.90
2019-05-06T06:18:22.406Z,18.92
2019-05-06T06:21:17.782Z,19.14
2019-05-06T06:23:44.036Z,19.28
2019-05-06T06:26:14.922Z,19.34
2019-05-06T06:28:45.936Z,19.53
2019-05-06T06:31:22.988Z,19.67
2019-05-06T06:33:55.972Z,19.80
2019-05-06T06:36:52.483Z,19.91
2019-05-06T06:39:27.293Z,20.05
2019-05-06T06:41:58.432Z,20.13
2019-05-06T06:44:33.144Z,20.21
2019-05-06T06:47:04.474Z,20.34
2019-05-06T06:49:35.684Z,20.43
2019-05-06T06:52:11.272Z,20.51
2019-05-06T06:54:39.669Z,20.58
2019-05-06T06:57:18.020Z,20.74
2019-05-06T06:59:53.391Z,20.90
2019-05-06T07:02:34.314Z,21.02
2019-05-06T07:05:28.344Z,21.09
2019-05-06T07:07:57.516Z,21.40
2019-05-06T07:10:39.409Z,21.73
2019-05-06T07:13:12.156Z,22.04
2019-05-06T07:15:43.513Z,22.11
2019-05-06T07:18:14.592Z,22.17
2019-05-06T07:21:04.899Z,22.20
2019-05-06T07:23:36.972Z,22.11
2019-05-06T07:26:12.007Z,22.39
2019-05-06T07:28:43.611Z,22.59
2019-05-06T07:31:22.417Z,22.68
2019-05-06T07:33:48.983Z,22.71
2019-05-06T07:36:20.303Z,22.63
2019-05-06T07:38:52.863Z,22.57
2019-05-06T07:41:25.663Z,22.56
2019-05-06T07:43:58.416Z,22.54
2019-05-06T07:46:33.916Z,22.62
2019-05-06T07:49:05.237Z,22.58
2019-05-06T07:51:36.472Z,22.68
2019-05-06T07:54:07.503Z,22.72
2019-05-06T07:56:38.646Z,22.75
2019-05-06T07:59:09.751Z,22.90
2019-05-06T08:01:43.786Z,22.99
2019-05-06T08:04:14.307Z,23.08
2019-05-06T08:06:45.541Z,23.20
2019-05-06T08:09:16.772Z,23.32
2019-05-06T08:11:47.856Z,23.35
2019-05-06T08:14:19.613Z,23.34
2019-05-06T08:16:58.358Z,23.40
2019-05-06T08:19:29.428Z,23.35
2019-05-06T08:22:02.764Z,23.38
2019-05-06T08:24:33.939Z,23.36
2019-05-06T08:27:05.166Z,23.37
2019-05-06T08:29:42.505Z,23.39
2019-05-06T08:32:13.670Z,23.46
2019-05-06T08:34:52.969Z,23.51
2019-05-06T08:37:32.510Z,23.52
2019-05-06T08:40:04.801Z,23.61
2019-05-06T08:42:35.775Z,23.63
2019-05-06T08:45:07.378Z,23.69
2019-05-06T08:47:38.333Z,23.69
2019-05-06T08:50:27.408Z,23.76
2019-05-06T08:53:06.058Z,23.82
2019-05-06T08:55:42.130Z,23.91
2019-05-06T08:58:13.936Z,23.98
2019-05-06T09:00:59.807Z,23.93
2019-05-06T09:03:32.775Z,24.03
2019-05-06T09:06:03.688Z,24.04
2019-05-06T09:08:34.862Z,24.06
2019-05-06T09:11:05.873Z,24.13
2019-05-06T09:13:36.883Z,24.18
2019-05-06T09:16:08.742Z,24.17
2019-05-06T09:18:42.345Z,24.26
2019-05-06T09:21:12.933Z,24.26
2019-05-06T09:23:44.092Z,24.22
2019-05-06T09:26:22.452Z,24.25
2019-05-06T09:28:55.031Z,24.27
2019-05-06T09:31:36.641Z,24.24
2019-05-06T09:34:24.517Z,24.20
2019-05-06T09:37:14.074Z,24.20
2019-05-06T09:39:45.577Z,24.18
2019-05-06T09:42:16.739Z,24.22
2019-05-06T09:44:50.485Z,24.29
2019-05-06T09:47:28.241Z,24.28
2019-05-06T09:50:02.525Z,24.39
2019-05-06T09:52:33.461Z,24.51
2019-05-06T09:55:08.968Z,24.65
2019-05-06T09:57:56.835Z,24.76
2019-05-06T10:00:32.313Z,24.79
2019-05-06T10:03:03.371Z,24.76
2019-05-06T10:05:34.844Z,24.85
2019-05-06T10:08:05.885Z,24.98
2019-05-06T10:10:37.965Z,25.07
2019-05-06T10:13:09.035Z,25.18
2019-05-06T10:15:40.193Z,25.38
2019-05-06T10:18:13.267Z,25.54
2019-05-06T10:20:45.341Z,25.59
2019-05-06T10:23:16.651Z,25.72
2019-05-06T10:25:47.667Z,25.79
2019-05-06T10:28:33.232Z,25.95
2019-05-06T10:33:58.887Z,25.98
2019-05-06T10:36:34.759Z,25.92
2019-05-06T10:39:07.946Z,25.78
2019-05-06T10:41:42.071Z,25.66
2019-05-06T10:44:19.086Z,25.55
2019-05-06T10:46:52.445Z,25.52
2019-05-06T10:49:22.953Z,25.34
2019-05-06T10:52:02.209Z,25.23
2019-05-06T10:54:33.450Z,25.23
2019-05-06T10:57:12.537Z,25.21
2019-05-06T10:59:44.843Z,25.25
2019-05-06T11:02:23.419Z,25.10
2019-05-06T11:04:54.460Z,25.07
2019-05-06T11:07:31.496Z,25.10
2019-05-06T11:09:58.218Z,25.02
2019-05-06T11:12:29.347Z,25.12
2019-05-06T11:15:03.255Z,25.20
2019-05-06T11:17:33.291Z,25.27
2019-05-06T11:20:06.906Z,25.25
2019-05-06T11:22:38.080Z,25.29
2019-05-06T11:25:09.223Z,25.22
2019-05-06T11:27:42.498Z,25.17
2019-05-06T11:30:14.751Z,25.16
2019-05-06T11:32:48.723Z,25.13
2019-05-06T11:35:25.364Z,24.97
2019-05-06T11:38:00.744Z,25.05
2019-05-06T11:40:33.034Z,25.04
2019-05-06T11:43:04.489Z,25.06
2019-05-06T11:45:35.607Z,25.07
2019-05-06T11:48:06.700Z,25.10
2019-05-06T11:50:38.411Z,25.09
2019-05-06T11:53:12.500Z,25.09
2019-05-06T11:55:43.722Z,25.09
2019-05-06T11:58:32.706Z,25.13
2019-05-06T12:01:05.460Z,25.15
2019-05-06T12:03:36.833Z,25.12
2019-05-06T12:06:07.880Z,25.10
2019-05-06T12:08:38.986Z,25.09
2019-05-06T12:11:12.554Z,25.10
2019-05-06T12:13:43.876Z,25.02
2019-05-06T12:16:15.170Z,25.00
2019-05-06T12:18:46.285Z,25.00
2019-05-06T12:21:19.351Z,24.97
2019-05-06T12:23:53.543Z,24.92
2019-05-06T12:26:24.003Z,24.94
2019-05-06T12:28:55.086Z,24.94
2019-05-06T12:31:26.259Z,24.93
2019-05-06T12:33:57.442Z,24.95
2019-05-06T12:36:28.542Z,24.95
2019-05-06T12:39:18.532Z,24.94
2019-05-06T12:41:50.149Z,24.81
2019-05-06T12:44:23.065Z,24.82
2019-05-06T12:46:59.947Z,24.71
2019-05-06T12:49:32.522Z,24.76
2019-05-06T12:52:03.955Z,24.76
2019-05-06T12:54:35.160Z,24.79
2019-05-06T12:57:06.350Z,24.79
2019-05-06T12:59:37.352Z,24.79
2019-05-06T13:02:08.454Z,24.75
2019-05-06T13:04:51.775Z,24.78
2019-05-06T13:07:14.141Z,24.67
2019-05-06T13:09:45.579Z,24.69
2019-05-06T13:12:18.604Z,24.71
2019-05-06T13:14:49.702Z,24.73
2019-05-06T13:17:23.330Z,24.65
2019-05-06T13:19:54.854Z,24.67
2019-05-06T13:22:34.245Z,24.67
2019-05-06T13:25:07.935Z,24.64
2019-05-06T13:27:39.385Z,24.65
2019-05-06T13:30:12.792Z,24.55
2019-05-06T13:32:44.991Z,24.63
2019-05-06T13:35:17.204Z,24.63
2019-05-06T13:37:48.334Z,24.63
2019-05-06T13:40:19.402Z,24.61
2019-05-06T13:42:57.879Z,24.61
2019-05-06T13:45:28.965Z,24.64
2019-05-06T13:48:03.840Z,24.48
2019-05-06T13:50:38.398Z,24.51
2019-05-06T13:53:14.004Z,24.48
2019-05-06T13:55:42.874Z,24.47
2019-05-06T13:58:14.044Z,24.44
2019-05-06T14:00:45.127Z,24.44
2019-05-06T14:03:17.617Z,24.42
2019-05-06T14:05:52.192Z,24.40
2019-05-06T14:08:33.754Z,24.41
2019-05-06T14:11:05.299Z,24.36
2019-05-06T14:13:42.171Z,24.33
2019-05-06T14:16:17.671Z,24.33
2019-05-06T14:18:48.774Z,24.33
2019-05-06T14:21:19.969Z,24.34
2019-05-06T14:23:51.377Z,24.34
2019-05-06T14:26:25.541Z,24.31
2019-05-06T14:29:02.333Z,24.28
2019-05-06T14:31:39.441Z,24.26
2019-05-06T14:34:11.938Z,24.23
2019-05-06T14:36:55.703Z,24.24
2019-05-06T14:39:25.378Z,24.23
2019-05-06T14:41:58.448Z,24.18
2019-05-06T14:44:29.447Z,24.19
2019-05-06T14:47:12.597Z,24.19
2019-05-06T14:49:44.911Z,24.25
2019-05-06T14:52:16.346Z,24.21
2019-05-06T14:54:53.426Z,24.23
2019-05-06T14:57:25.484Z,24.26
2019-05-06T14:59:56.722Z,24.16
2019-05-06T15:05:23.670Z,24.15
2019-05-06T15:07:56.535Z,24.14
2019-05-06T15:10:32.253Z,24.13
2019-05-06T15:13:04.033Z,24.09
2019-05-06T15:15:37.770Z,24.15
2019-05-06T15:18:12.756Z,24.17
2019-05-06T15:20:45.276Z,24.18
2019-05-06T15:23:18.268Z,24.21
2019-05-06T15:25:51.886Z,24.22
2019-05-06T15:28:23.238Z,24.24
2019-05-06T15:31:08.050Z,24.19
2019-05-06T15:33:43.841Z,24.03
2019-05-06T15:36:15.886Z,24.00
2019-05-06T15:38:47.285Z,23.87
2019-05-06T15:41:18.851Z,23.90
2019-05-06T15:43:50.291Z,23.78
2019-05-06T15:46:22.791Z,23.82
2019-05-06T15:48:54.663Z,23.79
2019-05-06T15:51:34.906Z,23.66
2019-05-06T15:54:06.437Z,23.69
2019-05-06T15:56:37.849Z,23.62
2019-05-06T15:59:09.234Z,23.69
2019-05-06T16:01:43.149Z,23.77
2019-05-06T16:04:14.607Z,23.83
2019-05-06T16:06:45.977Z,23.83
2019-05-06T16:09:17.255Z,23.87
2019-05-06T16:11:53.182Z,23.91
2019-05-06T16:14:27.190Z,23.95
2019-05-06T16:16:58.293Z,24.02
2019-05-06T16:19:29.661Z,24.10
2019-05-06T16:22:04.346Z,24.18
2019-05-06T16:24:37.387Z,24.17
2019-05-06T16:27:12.332Z,24.16
2019-05-06T16:29:44.757Z,24.14
2019-05-06T16:32:15.917Z,24.02
2019-05-06T16:34:47.032Z,23.90
2019-05-06T16:37:17.973Z,23.79
2019-05-06T16:39:49.095Z,23.68
2019-05-06T16:42:22.464Z,23.58
2019-05-06T16:44:53.994Z,23.49
2019-05-06T16:47:37.640Z,23.40
2019-05-06T16:50:16.839Z,23.35
2019-05-06T16:52:47.804Z,23.27
2019-05-06T16:55:20.627Z,23.19
2019-05-06T16:57:58.990Z,23.12
2019-05-06T17:00:32.209Z,23.05
2019-05-06T17:03:07.616Z,22.99
2019-05-06T17:05:44.138Z,22.94
2019-05-06T17:08:15.225Z,22.89
2019-05-06T17:10:47.277Z,22.83
2019-05-06T17:13:18.461Z,22.78
2019-05-06T17:15:50.057Z,22.73
2019-05-06T17:18:22.750Z,22.69
2019-05-06T17:20:54.015Z,22.65
2019-05-06T17:23:25.191Z,22.61
2019-05-06T17:25:56.235Z,22.57
2019-05-06T17:28:33.521Z,22.52
2019-05-06T17:31:15.611Z,22.48
2019-05-06T17:33:51.894Z,22.43
2019-05-06T17:36:27.410Z,22.40
2019-05-06T17:38:57.923Z,22.37
2019-05-06T17:41:42.436Z,22.26
2019-05-06T17:44:02.826Z,22.28
2019-05-06T17:46:47.731Z,22.24
2019-05-06T17:49:23.018Z,22.22
2019-05-06T17:52:10.912Z,22.16
2019-05-06T17:54:43.400Z,22.13
2019-05-06T17:57:14.468Z,22.08
2019-05-06T17:59:45.667Z,22.06
2019-05-06T18:02:19.272Z,22.03
2019-05-06T18:04:53.261Z,22.00
2019-05-06T18:07:24.397Z,21.97
2019-05-06T18:09:55.465Z,21.93
2019-05-06T18:12:26.484Z,21.91
2019-05-06T18:14:57.543Z,21.88
2019-05-06T18:17:28.577Z,21.84
2019-05-06T18:19:59.592Z,21.81
2019-05-06T18:22:32.414Z,21.77
2019-05-06T18:25:03.338Z,21.74
2019-05-06T18:27:34.307Z,21.70
2019-05-06T18:30:19.400Z,21.67
2019-05-06T18:32:38.567Z,21.64
2019-05-06T18:35:09.547Z,21.60
2019-05-06T18:37:42.638Z,21.56
2019-05-06T18:40:13.592Z,21.53
2019-05-06T18:42:44.717Z,21.50
2019-05-06T18:45:15.935Z,21.49
2019-05-06T18:47:46.911Z,21.45
2019-05-06T18:50:18.048Z,21.43
2019-05-06T18:52:49.234Z,21.40
2019-05-06T18:55:22.210Z,21.37
2019-05-06T18:57:52.939Z,21.36
2019-05-06T19:00:24.945Z,21.33
2019-05-06T19:02:56.088Z,21.32
2019-05-06T19:05:32.471Z,21.30
2019-05-06T19:08:06.054Z,21.24
2019-05-06T19:10:37.128Z,21.24
2019-05-06T19:13:08.731Z,21.18
2019-05-06T19:15:40.135Z,21.18
2019-05-06T19:18:12.932Z,21.16
2019-05-06T19:20:44.185Z,21.14
2019-05-06T19:23:15.702Z,21.10
2019-05-06T19:25:46.671Z,21.09
2019-05-06T19:28:17.646Z,21.06
2019-05-06T19:30:48.688Z,21.04
2019-05-06T19:33:19.842Z,21.03
2019-05-06T19:35:52.312Z,20.99
2019-05-06T19:38:24.494Z,20.90
2019-05-06T19:40:55.657Z,20.96
2019-05-06T19:43:26.589Z,20.93
2019-05-06T19:45:58.714Z,20.93
2019-05-06T19:48:32.640Z,20.92
2019-05-06T19:51:03.124Z,20.81
2019-05-06T19:53:34.362Z,20.81
2019-05-06T19:56:05.415Z,20.91
2019-05-06T19:58:36.576Z,20.90
2019-05-06T20:01:07.655Z,20.87
2019-05-06T20:03:38.891Z,20.87
2019-05-06T20:06:27.611Z,20.86
2019-05-06T20:09:12.903Z,20.83
2019-05-06T20:11:44.969Z,20.78
2019-05-06T20:14:15.996Z,20.73
2019-05-06T20:16:47.148Z,20.73
2019-05-06T20:19:29.816Z,20.69
2019-05-06T20:21:52.681Z,20.67
2019-05-06T20:24:24.074Z,20.65
2019-05-06T20:26:55.138Z,20.64
2019-05-06T20:29:26.149Z,20.64
2019-05-06T20:31:57.291Z,20.63
2019-05-06T20:34:28.485Z,20.63
2019-05-06T20:37:01.924Z,20.62
2019-05-06T20:39:32.358Z,20.63
2019-05-06T20:42:03.496Z,20.62
2019-05-06T20:44:34.617Z,20.63
2019-05-06T20:47:05.718Z,20.63
2019-05-06T20:49:36.624Z,20.65
2019-05-06T20:52:07.607Z,20.66
2019-05-06T20:54:38.742Z,20.69
2019-05-06T20:57:12.090Z,20.69
2019-05-06T20:59:43.635Z,20.59
2019-05-06T21:02:14.640Z,20.69
2019-05-06T21:04:46.627Z,20.63
2019-05-06T21:07:17.681Z,20.66
2019-05-06T21:09:48.658Z,20.66
2019-05-06T21:12:21.807Z,20.66
2019-05-06T21:14:52.416Z,20.68
2019-05-06T21:17:23.453Z,20.68
2019-05-06T21:19:54.475Z,20.67
2019-05-06T21:22:26.598Z,20.68
2019-05-06T21:24:57.608Z,20.68
2019-05-06T21:27:28.778Z,20.66
2019-05-06T21:29:59.849Z,20.64
2019-05-06T21:32:33.003Z,20.61
2019-05-06T21:35:04.112Z,20.57
2019-05-06T21:37:35.092Z,20.57
2019-05-06T21:40:06.106Z,20.54
2019-05-06T21:42:37.077Z,20.53
2019-05-06T21:45:08.092Z,20.51
2019-05-06T21:47:39.189Z,20.49
2019-05-06T21:50:12.028Z,20.46
2019-05-06T21:52:43.308Z,20.43
2019-05-06T21:55:14.243Z,20.38
2019-05-06T21:57:46.271Z,20.38
2019-05-06T22:00:17.836Z,20.38
2019-05-06T22:02:52.842Z,20.38
2019-05-06T22:05:23.297Z,20.33
2019-05-06T22:07:54.338Z,20.31
2019-05-06T22:10:25.534Z,20.30
2019-05-06T22:12:56.542Z,20.29
2019-05-06T22:15:27.641Z,20.25
2019-05-06T22:17:58.844Z,20.28
2019-05-06T22:20:32.811Z,20.27
2019-05-06T22:23:03.731Z,20.24
2019-05-06T22:25:34.794Z,20.25
2019-05-06T22:28:05.938Z,20.25
2019-05-06T22:30:36.925Z,20.23
2019-05-06T22:33:08.092Z,20.20
2019-05-06T22:35:39.311Z,20.21
2019-05-06T22:38:12.354Z,20.19
2019-05-06T22:40:43.248Z,20.16
2019-05-06T22:43:14.340Z,20.15
2019-05-06T22:45:45.363Z,20.14
2019-05-06T22:48:16.598Z,20.14
2019-05-06T22:50:47.585Z,20.14
2019-05-06T22:53:18.614Z,20.13
2019-05-06T22:55:49.679Z,20.13
2019-05-06T22:58:22.797Z,20.10
2019-05-06T23:00:55.010Z,20.09
2019-05-06T23:03:34.556Z,20.04
2019-05-06T23:06:05.827Z,20.02
2019-05-06T23:08:37.028Z,20.01
2019-05-06T23:11:08.149Z,20.01
2019-05-06T23:13:39.207Z,19.98
2019-05-06T23:16:12.775Z,19.96
2019-05-06T23:18:43.207Z,19.97
2019-05-06T23:21:14.731Z,19.97
2019-05-06T23:23:48.419Z,19.97
2019-05-06T23:26:24.818Z,19.96
2019-05-06T23:28:55.849Z,19.94
2019-05-06T23:31:26.839Z,19.94
2019-05-06T23:33:57.948Z,19.94
2019-05-06T23:36:33.505Z,19.94
2019-05-06T23:39:43.013Z,19.94
2019-05-06T23:42:52.675Z,19.95
2019-05-06T23:46:02.255Z,19.94
2019-05-06T23:49:09.461Z,19.91
2019-05-06T23:52:17.241Z,19.87
2019-05-06T23:55:24.799Z,19.83
2019-05-06T23:57:54.883Z,19.84
